sensor_id;sensor_type;location;lat;lon;timestamp;P1;durP1;ratioP1;P2;durP2;ratioP2
31764;SDS011;18338;53.240;8.798;2023-02-07T00:00:50;60.83;;;25.50;;
31764;SDS011;18338;53.240;8.798;2023-02-07T00:03:17;59.80;;;23.80;;
31764;SDS011;18338;53.240;8.798;2023-02-07T00:05:44;60.17;;;23.63;;
31764;SDS011;18338;53.240;8.798;2023-02-07T00:08:10;53.87;;;23.57;;
31764;SDS011;18338;53.240;8.798;2023-02-07T00:10:37;52.40;;;24.53;;
31764;SDS011;18338;53.240;8.798;2023-02-07T00:13:04;51.00;;;21.97;;
31764;SDS011;18338;53.240;8.798;2023-02-07T00:15:31;48.60;;;21.93;;
31764;SDS011;18338;53.240;8.798;2023-02-07T00:17:58;54.67;;;21.93;;
31764;SDS011;18338;53.240;8.798;2023-02-07T00:20:24;50.93;;;21.13;;
31764;SDS011;18338;53.240;8.798;2023-02-07T00:22:51;50.23;;;21.97;;
31764;SDS011;18338;53.240;8.798;2023-02-07T00:25:20;49.33;;;21.27;;
31764;SDS011;18338;53.240;8.798;2023-02-07T00:27:47;53.53;;;21.87;;
31764;SDS011;18338;53.240;8.798;2023-02-07T00:30:14;54.63;;;21.90;;
31764;SDS011;18338;53.240;8.798;2023-02-07T00:32:41;55.10;;;23.00;;
31764;SDS011;18338;53.240;8.798;2023-02-07T00:35:08;53.70;;;22.03;;
31764;SDS011;18338;53.240;8.798;2023-02-07T00:37:34;51.87;;;21.90;;
31764;SDS011;18338;53.240;8.798;2023-02-07T00:40:01;55.00;;;22.20;;
31764;SDS011;18338;53.240;8.798;2023-02-07T00:42:28;52.80;;;21.93;;
31764;SDS011;18338;53.240;8.798;2023-02-07T00:44:54;53.27;;;22.33;;
31764;SDS011;18338;53.240;8.798;2023-02-07T00:47:21;53.97;;;23.27;;
31764;SDS011;18338;53.240;8.798;2023-02-07T00:49:47;57.43;;;23.30;;
31764;SDS011;18338;53.240;8.798;2023-02-07T00:52:14;49.27;;;22.03;;
31764;SDS011;18338;53.240;8.798;2023-02-07T00:54:41;50.73;;;22.93;;
31764;SDS011;18338;53.240;8.798;2023-02-07T00:57:07;49.90;;;23.07;;
31764;SDS011;18338;53.240;8.798;2023-02-07T00:59:34;49.90;;;22.90;;
31764;SDS011;18338;53.240;8.798;2023-02-07T01:02:00;51.57;;;22.30;;
31764;SDS011;18338;53.240;8.798;2023-02-07T01:04:27;53.83;;;22.40;;
31764;SDS011;18338;53.240;8.798;2023-02-07T01:06:53;55.30;;;22.67;;
31764;SDS011;18338;53.240;8.798;2023-02-07T01:09:20;46.23;;;21.57;;
31764;SDS011;18338;53.240;8.798;2023-02-07T01:11:47;57.67;;;23.47;;
31764;SDS011;18338;53.240;8.798;2023-02-07T01:14:13;54.87;;;22.90;;
31764;SDS011;18338;53.240;8.798;2023-02-07T01:16:40;53.30;;;22.07;;
31764;SDS011;18338;53.240;8.798;2023-02-07T01:19:08;53.87;;;22.60;;
31764;SDS011;18338;53.240;8.798;2023-02-07T01:21:35;52.90;;;22.43;;
31764;SDS011;18338;53.240;8.798;2023-02-07T01:24:02;44.50;;;20.07;;
31764;SDS011;18338;53.240;8.798;2023-02-07T01:26:29;49.03;;;21.20;;
31764;SDS011;18338;53.240;8.798;2023-02-07T01:28:56;51.00;;;20.87;;
31764;SDS011;18338;53.240;8.798;2023-02-07T01:31:23;47.60;;;20.53;;
31764;SDS011;18338;53.240;8.798;2023-02-07T01:33:53;56.23;;;21.70;;
31764;SDS011;18338;53.240;8.798;2023-02-07T01:36:21;50.77;;;21.37;;
31764;SDS011;18338;53.240;8.798;2023-02-07T01:38:50;52.17;;;19.67;;
31764;SDS011;18338;53.240;8.798;2023-02-07T01:41:18;45.90;;;19.83;;
31764;SDS011;18338;53.240;8.798;2023-02-07T01:43:55;52.27;;;21.87;;
31764;SDS011;18338;53.240;8.798;2023-02-07T01:46:33;50.57;;;21.60;;
31764;SDS011;18338;53.240;8.798;2023-02-07T01:49:02;59.23;;;24.80;;
31764;SDS011;18338;53.240;8.798;2023-02-07T01:51:36;54.47;;;24.33;;
31764;SDS011;18338;53.240;8.798;2023-02-07T01:54:06;58.20;;;25.43;;
31764;SDS011;18338;53.240;8.798;2023-02-07T01:56:36;57.00;;;25.27;;
31764;SDS011;18338;53.240;8.798;2023-02-07T01:59:10;50.33;;;24.53;;
31764;SDS011;18338;53.240;8.798;2023-02-07T02:01:37;58.20;;;25.37;;
31764;SDS011;18338;53.240;8.798;2023-02-07T02:04:04;57.40;;;24.93;;
31764;SDS011;18338;53.240;8.798;2023-02-07T02:06:31;52.13;;;24.67;;
31764;SDS011;18338;53.240;8.798;2023-02-07T02:08:59;56.93;;;24.57;;
31764;SDS011;18338;53.240;8.798;2023-02-07T02:14:18;58.90;;;25.40;;
31764;SDS011;18338;53.240;8.798;2023-02-07T02:16:58;63.33;;;27.00;;
31764;SDS011;18338;53.240;8.798;2023-02-07T02:28:35;63.67;;;28.50;;
31764;SDS011;18338;53.240;8.798;2023-02-07T02:36:58;67.70;;;28.40;;
31764;SDS011;18338;53.240;8.798;2023-02-07T02:39:41;63.17;;;27.93;;
31764;SDS011;18338;53.240;8.798;2023-02-07T02:42:22;65.20;;;28.23;;
31764;SDS011;18338;53.240;8.798;2023-02-07T02:44:57;70.13;;;29.00;;
31764;SDS011;18338;53.240;8.798;2023-02-07T02:47:28;73.83;;;29.67;;
31764;SDS011;18338;53.240;8.798;2023-02-07T02:49:56;78.50;;;30.00;;
31764;SDS011;18338;53.240;8.798;2023-02-07T02:52:25;61.27;;;28.27;;
31764;SDS011;18338;53.240;8.798;2023-02-07T02:55:14;64.67;;;28.17;;
31764;SDS011;18338;53.240;8.798;2023-02-07T03:00:43;68.07;;;28.67;;
31764;SDS011;18338;53.240;8.798;2023-02-07T03:03:33;65.13;;;26.80;;
31764;SDS011;18338;53.240;8.798;2023-02-07T03:11:45;61.73;;;27.37;;
31764;SDS011;18338;53.240;8.798;2023-02-07T03:14:33;71.23;;;27.00;;
31764;SDS011;18338;53.240;8.798;2023-02-07T03:17:16;61.10;;;24.73;;
31764;SDS011;18338;53.240;8.798;2023-02-07T03:20:13;58.67;;;25.40;;
31764;SDS011;18338;53.240;8.798;2023-02-07T03:22:45;55.13;;;23.67;;
31764;SDS011;18338;53.240;8.798;2023-02-07T03:25:13;61.30;;;23.83;;
31764;SDS011;18338;53.240;8.798;2023-02-07T03:27:42;51.53;;;24.10;;
31764;SDS011;18338;53.240;8.798;2023-02-07T03:30:13;55.73;;;23.57;;
31764;SDS011;18338;53.240;8.798;2023-02-07T03:32:43;56.57;;;23.87;;
31764;SDS011;18338;53.240;8.798;2023-02-07T03:35:18;52.80;;;24.07;;
31764;SDS011;18338;53.240;8.798;2023-02-07T03:38:03;63.67;;;22.73;;
31764;SDS011;18338;53.240;8.798;2023-02-07T03:40:41;56.23;;;23.60;;
31764;SDS011;18338;53.240;8.798;2023-02-07T03:45:40;58.00;;;25.33;;
31764;SDS011;18338;53.240;8.798;2023-02-07T03:48:06;63.67;;;26.80;;
31764;SDS011;18338;53.240;8.798;2023-02-07T03:50:33;64.00;;;24.80;;
31764;SDS011;18338;53.240;8.798;2023-02-07T03:53:00;61.33;;;25.53;;
31764;SDS011;18338;53.240;8.798;2023-02-07T03:55:26;58.90;;;24.47;;
31764;SDS011;18338;53.240;8.798;2023-02-07T03:57:53;46.80;;;21.33;;
31764;SDS011;18338;53.240;8.798;2023-02-07T04:00:20;37.77;;;18.57;;
31764;SDS011;18338;53.240;8.798;2023-02-07T04:02:47;31.10;;;16.93;;
31764;SDS011;18338;53.240;8.798;2023-02-07T04:05:13;29.93;;;16.80;;
31764;SDS011;18338;53.240;8.798;2023-02-07T04:07:40;28.63;;;16.80;;
31764;SDS011;18338;53.240;8.798;2023-02-07T04:10:08;29.97;;;15.87;;
31764;SDS011;18338;53.240;8.798;2023-02-07T04:12:36;31.20;;;16.03;;
31764;SDS011;18338;53.240;8.798;2023-02-07T04:15:03;26.83;;;15.63;;
31764;SDS011;18338;53.240;8.798;2023-02-07T04:17:31;27.70;;;14.67;;
31764;SDS011;18338;53.240;8.798;2023-02-07T04:19:58;30.47;;;15.63;;
31764;SDS011;18338;53.240;8.798;2023-02-07T04:22:27;28.67;;;16.37;;
31764;SDS011;18338;53.240;8.798;2023-02-07T04:24:54;27.67;;;16.07;;
31764;SDS011;18338;53.240;8.798;2023-02-07T04:27:21;25.03;;;15.27;;
31764;SDS011;18338;53.240;8.798;2023-02-07T04:29:48;25.90;;;15.17;;
31764;SDS011;18338;53.240;8.798;2023-02-07T04:32:15;26.73;;;15.37;;
31764;SDS011;18338;53.240;8.798;2023-02-07T04:34:42;26.83;;;15.57;;
31764;SDS011;18338;53.240;8.798;2023-02-07T04:37:09;24.33;;;14.83;;
31764;SDS011;18338;53.240;8.798;2023-02-07T04:39:35;26.53;;;15.73;;
31764;SDS011;18338;53.240;8.798;2023-02-07T04:42:03;26.27;;;15.20;;
31764;SDS011;18338;53.240;8.798;2023-02-07T04:44:30;26.70;;;15.63;;
31764;SDS011;18338;53.240;8.798;2023-02-07T04:46:57;23.67;;;14.67;;
31764;SDS011;18338;53.240;8.798;2023-02-07T04:49:23;28.40;;;16.00;;
31764;SDS011;18338;53.240;8.798;2023-02-07T04:51:50;39.47;;;21.50;;
31764;SDS011;18338;53.240;8.798;2023-02-07T04:54:17;48.63;;;24.87;;
31764;SDS011;18338;53.240;8.798;2023-02-07T04:56:43;41.10;;;21.30;;
31764;SDS011;18338;53.240;8.798;2023-02-07T04:59:10;26.67;;;15.80;;
31764;SDS011;18338;53.240;8.798;2023-02-07T05:01:36;31.00;;;17.13;;
31764;SDS011;18338;53.240;8.798;2023-02-07T05:04:03;30.83;;;15.83;;
31764;SDS011;18338;53.240;8.798;2023-02-07T05:06:30;29.63;;;17.77;;
31764;SDS011;18338;53.240;8.798;2023-02-07T05:09:03;28.37;;;16.37;;
31764;SDS011;18338;53.240;8.798;2023-02-07T05:11:33;28.00;;;16.03;;
31764;SDS011;18338;53.240;8.798;2023-02-07T05:14:00;25.80;;;16.37;;
31764;SDS011;18338;53.240;8.798;2023-02-07T05:16:27;26.73;;;15.23;;
31764;SDS011;18338;53.240;8.798;2023-02-07T05:18:54;26.23;;;15.93;;
31764;SDS011;18338;53.240;8.798;2023-02-07T05:21:21;26.07;;;15.47;;
31764;SDS011;18338;53.240;8.798;2023-02-07T05:23:47;26.60;;;15.47;;
31764;SDS011;18338;53.240;8.798;2023-02-07T05:26:14;24.53;;;13.97;;
31764;SDS011;18338;53.240;8.798;2023-02-07T05:28:42;27.57;;;14.80;;
31764;SDS011;18338;53.240;8.798;2023-02-07T05:31:09;27.10;;;14.57;;
31764;SDS011;18338;53.240;8.798;2023-02-07T05:33:36;25.47;;;15.03;;
31764;SDS011;18338;53.240;8.798;2023-02-07T05:36:03;24.33;;;14.63;;
31764;SDS011;18338;53.240;8.798;2023-02-07T05:39:01;27.30;;;15.00;;
31764;SDS011;18338;53.240;8.798;2023-02-07T05:41:29;25.07;;;14.77;;
31764;SDS011;18338;53.240;8.798;2023-02-07T05:43:56;22.30;;;14.47;;
31764;SDS011;18338;53.240;8.798;2023-02-07T05:46:23;26.60;;;13.73;;
31764;SDS011;18338;53.240;8.798;2023-02-07T05:48:50;25.57;;;14.97;;
31764;SDS011;18338;53.240;8.798;2023-02-07T05:51:17;24.10;;;14.37;;
31764;SDS011;18338;53.240;8.798;2023-02-07T05:53:44;24.90;;;13.63;;
31764;SDS011;18338;53.240;8.798;2023-02-07T05:56:10;22.00;;;13.40;;
31764;SDS011;18338;53.240;8.798;2023-02-07T05:58:37;27.60;;;15.67;;
31764;SDS011;18338;53.240;8.798;2023-02-07T06:01:03;23.00;;;14.17;;
31764;SDS011;18338;53.240;8.798;2023-02-07T06:03:30;23.10;;;13.53;;
31764;SDS011;18338;53.240;8.798;2023-02-07T06:05:57;21.57;;;14.60;;
31764;SDS011;18338;53.240;8.798;2023-02-07T06:08:23;22.57;;;14.17;;
31764;SDS011;18338;53.240;8.798;2023-02-07T06:10:50;23.63;;;14.50;;
31764;SDS011;18338;53.240;8.798;2023-02-07T06:13:17;27.63;;;14.07;;
31764;SDS011;18338;53.240;8.798;2023-02-07T06:15:44;25.37;;;13.97;;
31764;SDS011;18338;53.240;8.798;2023-02-07T06:18:11;24.03;;;14.23;;
31764;SDS011;18338;53.240;8.798;2023-02-07T06:20:38;26.00;;;14.37;;
31764;SDS011;18338;53.240;8.798;2023-02-07T06:23:04;23.43;;;14.03;;
31764;SDS011;18338;53.240;8.798;2023-02-07T06:25:31;27.53;;;15.07;;
31764;SDS011;18338;53.240;8.798;2023-02-07T06:27:58;25.97;;;14.50;;
31764;SDS011;18338;53.240;8.798;2023-02-07T06:30:26;24.23;;;14.57;;
31764;SDS011;18338;53.240;8.798;2023-02-07T06:32:53;23.53;;;14.27;;
31764;SDS011;18338;53.240;8.798;2023-02-07T06:35:19;24.17;;;15.37;;
31764;SDS011;18338;53.240;8.798;2023-02-07T06:37:46;28.30;;;15.33;;
31764;SDS011;18338;53.240;8.798;2023-02-07T06:40:13;24.97;;;15.03;;
31764;SDS011;18338;53.240;8.798;2023-02-07T06:42:39;26.27;;;14.77;;
31764;SDS011;18338;53.240;8.798;2023-02-07T06:45:06;25.70;;;14.87;;
31764;SDS011;18338;53.240;8.798;2023-02-07T06:47:33;27.33;;;14.60;;
31764;SDS011;18338;53.240;8.798;2023-02-07T06:50:00;25.60;;;15.83;;
31764;SDS011;18338;53.240;8.798;2023-02-07T06:52:26;27.13;;;14.60;;
31764;SDS011;18338;53.240;8.798;2023-02-07T06:54:53;27.93;;;15.50;;
31764;SDS011;18338;53.240;8.798;2023-02-07T06:57:20;26.10;;;16.00;;
31764;SDS011;18338;53.240;8.798;2023-02-07T06:59:47;28.40;;;16.53;;
31764;SDS011;18338;53.240;8.798;2023-02-07T07:02:13;25.93;;;15.10;;
31764;SDS011;18338;53.240;8.798;2023-02-07T07:04:40;26.60;;;15.47;;
31764;SDS011;18338;53.240;8.798;2023-02-07T07:07:07;27.77;;;15.23;;
31764;SDS011;18338;53.240;8.798;2023-02-07T07:09:33;24.90;;;14.37;;
31764;SDS011;18338;53.240;8.798;2023-02-07T07:12:00;26.53;;;14.47;;
31764;SDS011;18338;53.240;8.798;2023-02-07T07:14:27;24.27;;;14.73;;
31764;SDS011;18338;53.240;8.798;2023-02-07T07:16:53;23.57;;;14.13;;
31764;SDS011;18338;53.240;8.798;2023-02-07T07:19:22;28.17;;;15.30;;
31764;SDS011;18338;53.240;8.798;2023-02-07T07:21:48;28.27;;;16.57;;
31764;SDS011;18338;53.240;8.798;2023-02-07T07:24:15;26.47;;;15.73;;
31764;SDS011;18338;53.240;8.798;2023-02-07T07:26:42;28.77;;;15.73;;
31764;SDS011;18338;53.240;8.798;2023-02-07T07:29:15;29.77;;;15.97;;
31764;SDS011;18338;53.240;8.798;2023-02-07T07:31:45;27.10;;;15.70;;
31764;SDS011;18338;53.240;8.798;2023-02-07T07:34:12;28.37;;;15.97;;
31764;SDS011;18338;53.240;8.798;2023-02-07T07:36:38;27.17;;;16.37;;
31764;SDS011;18338;53.240;8.798;2023-02-07T07:39:06;25.37;;;15.77;;
31764;SDS011;18338;53.240;8.798;2023-02-07T07:41:34;29.07;;;15.93;;
31764;SDS011;18338;53.240;8.798;2023-02-07T07:44:02;30.70;;;17.10;;
31764;SDS011;18338;53.240;8.798;2023-02-07T07:46:29;29.50;;;17.73;;
31764;SDS011;18338;53.240;8.798;2023-02-07T07:48:55;31.30;;;16.20;;
31764;SDS011;18338;53.240;8.798;2023-02-07T07:51:23;25.37;;;16.43;;
31764;SDS011;18338;53.240;8.798;2023-02-07T07:53:49;27.17;;;16.77;;
31764;SDS011;18338;53.240;8.798;2023-02-07T07:56:16;29.80;;;16.67;;
31764;SDS011;18338;53.240;8.798;2023-02-07T07:58:43;28.23;;;17.23;;
31764;SDS011;18338;53.240;8.798;2023-02-07T08:01:10;34.07;;;18.10;;
31764;SDS011;18338;53.240;8.798;2023-02-07T08:03:36;30.33;;;17.03;;
31764;SDS011;18338;53.240;8.798;2023-02-07T08:06:03;30.47;;;17.73;;
31764;SDS011;18338;53.240;8.798;2023-02-07T08:08:30;29.40;;;18.33;;
31764;SDS011;18338;53.240;8.798;2023-02-07T08:11:04;32.47;;;17.37;;
31764;SDS011;18338;53.240;8.798;2023-02-07T08:13:31;32.37;;;19.13;;
31764;SDS011;18338;53.240;8.798;2023-02-07T08:15:59;33.37;;;18.47;;
31764;SDS011;18338;53.240;8.798;2023-02-07T08:18:26;32.63;;;19.40;;
31764;SDS011;18338;53.240;8.798;2023-02-07T08:20:54;34.40;;;19.90;;
31764;SDS011;18338;53.240;8.798;2023-02-07T08:23:21;35.87;;;21.23;;
31764;SDS011;18338;53.240;8.798;2023-02-07T08:25:48;35.33;;;21.57;;
31764;SDS011;18338;53.240;8.798;2023-02-07T08:28:15;38.07;;;21.30;;
31764;SDS011;18338;53.240;8.798;2023-02-07T08:30:42;39.00;;;21.03;;
31764;SDS011;18338;53.240;8.798;2023-02-07T08:33:13;33.60;;;21.17;;
31764;SDS011;18338;53.240;8.798;2023-02-07T08:35:40;35.10;;;21.53;;
31764;SDS011;18338;53.240;8.798;2023-02-07T08:38:07;37.70;;;21.33;;
31764;SDS011;18338;53.240;8.798;2023-02-07T08:40:34;35.10;;;22.67;;
31764;SDS011;18338;53.240;8.798;2023-02-07T08:43:02;42.60;;;23.20;;
31764;SDS011;18338;53.240;8.798;2023-02-07T08:45:32;40.33;;;23.30;;
31764;SDS011;18338;53.240;8.798;2023-02-07T08:47:58;42.20;;;24.07;;
31764;SDS011;18338;53.240;8.798;2023-02-07T08:50:25;44.13;;;25.03;;
31764;SDS011;18338;53.240;8.798;2023-02-07T08:52:52;44.60;;;25.13;;
31764;SDS011;18338;53.240;8.798;2023-02-07T08:55:18;44.70;;;26.90;;
31764;SDS011;18338;53.240;8.798;2023-02-07T08:57:45;48.07;;;25.90;;
31764;SDS011;18338;53.240;8.798;2023-02-07T09:00:12;48.60;;;27.17;;
31764;SDS011;18338;53.240;8.798;2023-02-07T09:02:39;50.27;;;27.90;;
31764;SDS011;18338;53.240;8.798;2023-02-07T09:05:07;52.97;;;27.30;;
31764;SDS011;18338;53.240;8.798;2023-02-07T09:07:34;47.53;;;26.63;;
31764;SDS011;18338;53.240;8.798;2023-02-07T09:10:02;53.40;;;28.33;;
31764;SDS011;18338;53.240;8.798;2023-02-07T09:12:32;58.90;;;31.80;;
31764;SDS011;18338;53.240;8.798;2023-02-07T09:15:00;71.37;;;36.03;;
31764;SDS011;18338;53.240;8.798;2023-02-07T09:17:28;93.03;;;43.00;;
31764;SDS011;18338;53.240;8.798;2023-02-07T09:19:55;75.80;;;40.93;;
31764;SDS011;18338;53.240;8.798;2023-02-07T09:22:22;75.87;;;41.70;;
31764;SDS011;18338;53.240;8.798;2023-02-07T09:24:48;73.07;;;39.63;;
31764;SDS011;18338;53.240;8.798;2023-02-07T09:27:15;72.20;;;40.67;;
31764;SDS011;18338;53.240;8.798;2023-02-07T09:29:42;73.47;;;41.03;;
31764;SDS011;18338;53.240;8.798;2023-02-07T09:32:09;144.67;;;54.23;;
31764;SDS011;18338;53.240;8.798;2023-02-07T09:34:35;82.33;;;37.83;;
31764;SDS011;18338;53.240;8.798;2023-02-07T09:37:02;512.07;;;85.80;;
31764;SDS011;18338;53.240;8.798;2023-02-07T09:39:29;391.50;;;58.27;;
31764;SDS011;18338;53.240;8.798;2023-02-07T09:45:15;26.75;;;19.30;;
31764;SDS011;18338;53.240;8.798;2023-02-07T09:47:45;22.52;;;17.75;;
31764;SDS011;18338;53.240;8.798;2023-02-07T09:50:17;17.50;;;14.95;;
31764;SDS011;18338;53.240;8.798;2023-02-07T09:53:53;18.75;;;15.52;;
31764;SDS011;18338;53.240;8.798;2023-02-07T09:56:05;13.55;;;12.15;;
31764;SDS011;18338;53.240;8.798;2023-02-07T09:58:44;12.52;;;11.25;;
31764;SDS011;18338;53.240;8.798;2023-02-07T10:01:18;11.23;;;10.13;;
31764;SDS011;18338;53.240;8.798;2023-02-07T10:03:54;10.43;;;9.32;;
31764;SDS011;18338;53.240;8.798;2023-02-07T10:06:33;9.70;;;8.70;;
31764;SDS011;18338;53.240;8.798;2023-02-07T10:09:01;8.90;;;8.00;;
31764;SDS011;18338;53.240;8.798;2023-02-07T10:11:43;9.40;;;8.50;;
31764;SDS011;18338;53.240;8.798;2023-02-07T10:14:41;9.45;;;8.57;;
31764;SDS011;18338;53.240;8.798;2023-02-07T10:17:28;28.00;;;20.63;;
31764;SDS011;18338;53.240;8.798;2023-02-07T10:28:57;9.45;;;8.43;;
31764;SDS011;18338;53.240;8.798;2023-02-07T10:31:29;10.45;;;9.35;;
31764;SDS011;18338;53.240;8.798;2023-02-07T10:34:00;10.32;;;9.23;;
31764;SDS011;18338;53.240;8.798;2023-02-07T10:36:36;9.25;;;8.35;;
31764;SDS011;18338;53.240;8.798;2023-02-07T10:39:17;8.98;;;7.93;;
31764;SDS011;18338;53.240;8.798;2023-02-07T10:41:56;8.68;;;7.78;;
31764;SDS011;18338;53.240;8.798;2023-02-07T10:44:23;9.68;;;8.77;;
31764;SDS011;18338;53.240;8.798;2023-02-07T10:46:54;9.82;;;8.82;;
31764;SDS011;18338;53.240;8.798;2023-02-07T10:49:26;9.82;;;8.88;;
31764;SDS011;18338;53.240;8.798;2023-02-07T10:51:56;10.70;;;9.60;;
31764;SDS011;18338;53.240;8.798;2023-02-07T10:54:25;9.73;;;8.73;;
31764;SDS011;18338;53.240;8.798;2023-02-07T10:56:56;10.68;;;9.57;;
31764;SDS011;18338;53.240;8.798;2023-02-07T10:59:32;10.38;;;9.38;;
31764;SDS011;18338;53.240;8.798;2023-02-07T11:05:25;10.13;;;8.95;;
31764;SDS011;18338;53.240;8.798;2023-02-07T11:07:54;10.70;;;9.70;;
31764;SDS011;18338;53.240;8.798;2023-02-07T11:10:37;9.68;;;8.77;;
31764;SDS011;18338;53.240;8.798;2023-02-07T11:13:17;9.88;;;8.88;;
31764;SDS011;18338;53.240;8.798;2023-02-07T11:20:56;13.57;;;12.00;;
31764;SDS011;18338;53.240;8.798;2023-02-07T11:23:22;12.55;;;11.25;;
31764;SDS011;18338;53.240;8.798;2023-02-07T11:25:51;9.75;;;8.85;;
31764;SDS011;18338;53.240;8.798;2023-02-07T11:28:21;10.05;;;9.02;;
31764;SDS011;18338;53.240;8.798;2023-02-07T11:30:54;10.48;;;9.30;;
31764;SDS011;18338;53.240;8.798;2023-02-07T11:33:25;11.25;;;10.05;;
31764;SDS011;18338;53.240;8.798;2023-02-07T11:36:00;10.57;;;9.43;;
31764;SDS011;18338;53.240;8.798;2023-02-07T11:38:27;10.70;;;9.60;;
31764;SDS011;18338;53.240;8.798;2023-02-07T11:40:57;9.88;;;8.88;;
31764;SDS011;18338;53.240;8.798;2023-02-07T11:43:29;9.25;;;8.35;;
31764;SDS011;18338;53.240;8.798;2023-02-07T11:45:58;8.65;;;7.78;;
31764;SDS011;18338;53.240;8.798;2023-02-07T11:48:28;8.90;;;8.00;;
31764;SDS011;18338;53.240;8.798;2023-02-07T11:51:00;8.35;;;7.55;;
31764;SDS011;18338;53.240;8.798;2023-02-07T11:53:36;8.48;;;7.68;;
31764;SDS011;18338;53.240;8.798;2023-02-07T11:56:19;9.07;;;8.18;;
31764;SDS011;18338;53.240;8.798;2023-02-07T11:59:26;7.53;;;6.88;;
31764;SDS011;18338;53.240;8.798;2023-02-07T12:01:54;9.15;;;8.25;;
31764;SDS011;18338;53.240;8.798;2023-02-07T12:04:24;8.73;;;7.68;;
31764;SDS011;18338;53.240;8.798;2023-02-07T12:07:02;7.70;;;6.95;;
31764;SDS011;18338;53.240;8.798;2023-02-07T12:12:10;7.43;;;6.82;;
31764;SDS011;18338;53.240;8.798;2023-02-07T12:14:51;7.97;;;7.28;;
31764;SDS011;18338;53.240;8.798;2023-02-07T12:17:38;8.00;;;7.30;;
31764;SDS011;18338;53.240;8.798;2023-02-07T12:20:28;8.20;;;6.88;;
31764;SDS011;18338;53.240;8.798;2023-02-07T12:25:57;7.80;;;7.10;;
31764;SDS011;18338;53.240;8.798;2023-02-07T12:31:25;8.57;;;7.78;;
31764;SDS011;18338;53.240;8.798;2023-02-07T12:34:03;10.32;;;9.32;;
31764;SDS011;18338;53.240;8.798;2023-02-07T12:36:46;8.20;;;7.50;;
31764;SDS011;18338;53.240;8.798;2023-02-07T12:39:23;7.90;;;7.20;;
31764;SDS011;18338;53.240;8.798;2023-02-07T12:44:51;19.13;;;17.23;;
31764;SDS011;18338;53.240;8.798;2023-02-07T12:50:27;7.40;;;6.70;;
31764;SDS011;18338;53.240;8.798;2023-02-07T12:59:07;7.57;;;6.68;;
31764;SDS011;18338;53.240;8.798;2023-02-07T13:02:29;7.80;;;7.10;;
31764;SDS011;18338;53.240;8.798;2023-02-07T13:05:04;7.07;;;6.47;;
31764;SDS011;18338;53.240;8.798;2023-02-07T13:10:42;6.45;;;5.85;;
31764;SDS011;18338;53.240;8.798;2023-02-07T13:13:26;7.60;;;6.90;;
31764;SDS011;18338;53.240;8.798;2023-02-07T13:18:41;6.57;;;5.97;;
31764;SDS011;18338;53.240;8.798;2023-02-07T13:23:47;5.68;;;5.07;;
31764;SDS011;18338;53.240;8.798;2023-02-07T13:29:46;6.55;;;5.43;;
31764;SDS011;18338;53.240;8.798;2023-02-07T13:32:19;6.53;;;5.00;;
31764;SDS011;18338;53.240;8.798;2023-02-07T13:34:54;5.85;;;5.03;;
31764;SDS011;18338;53.240;8.798;2023-02-07T13:37:58;6.50;;;5.90;;
31764;SDS011;18338;53.240;8.798;2023-02-07T13:43:37;5.90;;;5.05;;
31764;SDS011;18338;53.240;8.798;2023-02-07T13:46:38;6.15;;;5.53;;
31764;SDS011;18338;53.240;8.798;2023-02-07T13:58:53;7.25;;;5.18;;
31764;SDS011;18338;53.240;8.798;2023-02-07T14:01:20;5.72;;;5.13;;
31764;SDS011;18338;53.240;8.798;2023-02-07T14:04:06;6.90;;;5.57;;
31764;SDS011;18338;53.240;8.798;2023-02-07T14:09:32;7.47;;;5.70;;
31764;SDS011;18338;53.240;8.798;2023-02-07T14:17:57;7.28;;;6.22;;
31764;SDS011;18338;53.240;8.798;2023-02-07T14:23:16;6.32;;;5.75;;
31764;SDS011;18338;53.240;8.798;2023-02-07T14:25:45;6.47;;;5.78;;
31764;SDS011;18338;53.240;8.798;2023-02-07T14:28:32;7.78;;;6.32;;
31764;SDS011;18338;53.240;8.798;2023-02-07T14:31:11;7.80;;;6.25;;
31764;SDS011;18338;53.240;8.798;2023-02-07T14:34:11;7.32;;;6.63;;
31764;SDS011;18338;53.240;8.798;2023-02-07T14:36:42;8.50;;;6.95;;
31764;SDS011;18338;53.240;8.798;2023-02-07T14:41:40;6.88;;;5.93;;
31764;SDS011;18338;53.240;8.798;2023-02-07T14:46:51;7.53;;;6.75;;
31764;SDS011;18338;53.240;8.798;2023-02-07T15:02:51;7.32;;;6.63;;
31764;SDS011;18338;53.240;8.798;2023-02-07T15:10:36;7.65;;;6.63;;
31764;SDS011;18338;53.240;8.798;2023-02-07T15:13:16;8.52;;;7.00;;
31764;SDS011;18338;53.240;8.798;2023-02-07T15:15:51;8.45;;;7.25;;
31764;SDS011;18338;53.240;8.798;2023-02-07T15:18:22;9.02;;;6.88;;
31764;SDS011;18338;53.240;8.798;2023-02-07T15:20:52;9.35;;;7.53;;
31764;SDS011;18338;53.240;8.798;2023-02-07T15:23:24;12.25;;;7.60;;
31764;SDS011;18338;53.240;8.798;2023-02-07T15:25:52;9.93;;;6.90;;
31764;SDS011;18338;53.240;8.798;2023-02-07T15:33:36;8.40;;;6.90;;
31764;SDS011;18338;53.240;8.798;2023-02-07T15:38:58;10.07;;;7.50;;
31764;SDS011;18338;53.240;8.798;2023-02-07T15:41:27;8.88;;;7.38;;
31764;SDS011;18338;53.240;8.798;2023-02-07T15:43:55;8.63;;;6.47;;
31764;SDS011;18338;53.240;8.798;2023-02-07T15:46:44;8.43;;;7.00;;
31764;SDS011;18338;53.240;8.798;2023-02-07T15:52:23;11.20;;;8.40;;
31764;SDS011;18338;53.240;8.798;2023-02-07T15:54:57;11.88;;;8.32;;
31764;SDS011;18338;53.240;8.798;2023-02-07T16:00:07;11.50;;;8.98;;
31764;SDS011;18338;53.240;8.798;2023-02-07T16:02:35;13.98;;;8.95;;
31764;SDS011;18338;53.240;8.798;2023-02-07T16:05:07;11.25;;;8.50;;
31764;SDS011;18338;53.240;8.798;2023-02-07T16:07:35;13.13;;;8.73;;
31764;SDS011;18338;53.240;8.798;2023-02-07T16:15:33;11.60;;;8.80;;
31764;SDS011;18338;53.240;8.798;2023-02-07T16:18:02;15.63;;;9.05;;
31764;SDS011;18338;53.240;8.798;2023-02-07T16:20:32;12.07;;;8.80;;
31764;SDS011;18338;53.240;8.798;2023-02-07T16:23:02;14.63;;;10.17;;
31764;SDS011;18338;53.240;8.798;2023-02-07T16:25:32;15.23;;;10.37;;
31764;SDS011;18338;53.240;8.798;2023-02-07T16:28:00;14.13;;;10.40;;
31764;SDS011;18338;53.240;8.798;2023-02-07T16:30:30;14.77;;;10.80;;
31764;SDS011;18338;53.240;8.798;2023-02-07T16:33:06;17.67;;;11.43;;
31764;SDS011;18338;53.240;8.798;2023-02-07T16:35:36;17.17;;;12.13;;
31764;SDS011;18338;53.240;8.798;2023-02-07T16:38:03;19.93;;;12.60;;
31764;SDS011;18338;53.240;8.798;2023-02-07T16:40:30;21.27;;;12.37;;
31764;SDS011;18338;53.240;8.798;2023-02-07T16:42:57;15.70;;;11.43;;
31764;SDS011;18338;53.240;8.798;2023-02-07T16:45:25;19.57;;;11.50;;
31764;SDS011;18338;53.240;8.798;2023-02-07T16:47:54;17.20;;;11.60;;
31764;SDS011;18338;53.240;8.798;2023-02-07T16:50:24;18.33;;;10.83;;
31764;SDS011;18338;53.240;8.798;2023-02-07T16:52:55;15.43;;;10.83;;
31764;SDS011;18338;53.240;8.798;2023-02-07T16:55:23;14.27;;;10.00;;
31764;SDS011;18338;53.240;8.798;2023-02-07T16:57:52;16.33;;;10.23;;
31764;SDS011;18338;53.240;8.798;2023-02-07T17:00:21;16.10;;;10.93;;
31764;SDS011;18338;53.240;8.798;2023-02-07T17:02:49;15.43;;;10.70;;
31764;SDS011;18338;53.240;8.798;2023-02-07T17:05:18;15.70;;;10.67;;
31764;SDS011;18338;53.240;8.798;2023-02-07T17:07:48;21.33;;;14.03;;
31764;SDS011;18338;53.240;8.798;2023-02-07T17:12:54;27.80;;;15.00;;
31764;SDS011;18338;53.240;8.798;2023-02-07T17:15:27;21.83;;;14.43;;
31764;SDS011;18338;53.240;8.798;2023-02-07T17:18:01;23.23;;;13.50;;
31764;SDS011;18338;53.240;8.798;2023-02-07T17:20:29;19.07;;;12.83;;